^^
Saratoga-Weather Station Historical Data
Daily Summary for November 24, 2020 Units:  English    Metric   Both
Daily Weekly Monthly Yearly Custom
  High: Low: Average:
Temperature: 43.2 °F 37.2 °F 39.7 °F
Dew Point: 42.1 °F 36.5 °F 39 °F
Humidity: 98% 95% 97%
Wind Speed: 4mph 0mph 1mph
Wind Gust: 7mph - -
Wind- - East
Pressure: 30.4 in 30.1 in -
Precipitation: 0.01 in    
Historical Graphs
 
 
Tabular Data for November 24, 2020
Time Temperature Dew Point Pressure Wind Wind Speed Wind Gust Humidity Rainfall Rate (Hourly) solar
00:00 43.2 °F 42.1 °F 30.4 in Calm     96% 0 in 0 W/m2
00:05 43 °F 41.9 °F 30.4 in Calm     96% 0 in 0 W/m2
00:10 42.8 °F 41.7 °F 30.4 in Calm     96% 0 in 0 W/m2
00:15 42.6 °F 41.5 °F 30.4 in Calm     96% 0 in 0 W/m2
00:20 42.4 °F 41.4 °F 30.4 in Calm     96% 0 in 0 W/m2
00:25 42.4 °F 41.4 °F 30.4 in Calm     96% 0 in 0 W/m2
00:30 42.3 °F 41.2 °F 30.4 in Calm     96% 0 in 0 W/m2
00:35 42.3 °F 41.2 °F 30.4 in Calm     96% 0 in 0 W/m2
00:40 42.1 °F 41 °F 30.4 in Calm     96% 0 in 0 W/m2
00:45 41.7 °F 40.6 °F 30.4 in Calm     96% 0 in 0 W/m2
00:50 41.7 °F 40.6 °F 30.3 in Calm     96% 0 in 0 W/m2
00:55 41.5 °F 40.5 °F 30.3 in Calm     96% 0 in 0 W/m2
01:00 41.5 °F 40.5 °F 30.3 in Calm     96% 0 in 0 W/m2
01:05 41.4 °F 40.3 °F 30.3 in Calm     96% 0 in 0 W/m2
01:10 41.4 °F 40.3 °F 30.3 in Calm     96% 0 in 0 W/m2
01:15 41.4 °F 40.3 °F 30.3 in Calm     96% 0 in 0 W/m2
01:20 41.4 °F 40.3 °F 30.3 in Calm     96% 0 in 0 W/m2
01:25 41.5 °F 40.5 °F 30.3 in Calm     96% 0 in 0 W/m2
01:30 41.5 °F 40.5 °F 30.3 in Calm     96% 0 in 0 W/m2
01:35 41.7 °F 41 °F 30.3 in Calm     97% 0 in 0 W/m2
01:40 41.9 °F 41.2 °F 30.3 in Calm     97% 0 in 0 W/m2
01:45 42.1 °F 41.4 °F 30.3 in Calm     97% 0 in 0 W/m2
01:50 42.3 °F 41.5 °F 30.3 in Calm     97% 0 in 0 W/m2
01:55 42.3 °F 41.5 °F 30.3 in ENE 0.9 mph 2 mph 97% 0 in 0 W/m2
02:01 42.3 °F 41.5 °F 30.3 in Calm   1 mph 97% 0 in 0 W/m2
02:06 42.3 °F 41.5 °F 30.3 in Calm     97% 0 in 0 W/m2
02:11 42.1 °F 41.4 °F 30.3 in Calm   1 mph 97% 0 in 0 W/m2
02:16 42.1 °F 41.4 °F 30.3 in Calm     97% 0 in 0 W/m2
02:21 42.1 °F 41.4 °F 30.3 in Calm     97% 0 in 0 W/m2
02:26 42.1 °F 41.4 °F 30.3 in Calm     97% 0 in 0 W/m2
02:31 41.9 °F 41.2 °F 30.3 in Calm     97% 0 in 0 W/m2
02:36 42.1 °F 41.4 °F 30.3 in Calm     97% 0 in 0 W/m2
02:41 41.9 °F 41.2 °F 30.3 in Calm     97% 0 in 0 W/m2
02:46 41.9 °F 41.2 °F 30.3 in Calm     97% 0 in 0 W/m2
02:51 41.9 °F 41.2 °F 30.3 in Calm     97% 0 in 0 W/m2
02:56 41.9 °F 41.2 °F 30.3 in Calm     97% 0 in 0 W/m2
03:01 41.9 °F 41.2 °F 30.3 in Calm   2 mph 97% 0 in 0 W/m2
03:06 41.9 °F 41.2 °F 30.3 in Calm   1 mph 97% 0 in 0 W/m2
03:11 41.7 °F 41 °F 30.3 in Calm   2 mph 97% 0 in 0 W/m2
03:16 41.7 °F 41 °F 30.3 in Calm   2 mph 97% 0 in 0 W/m2
03:21 41.5 °F 40.5 °F 30.3 in Calm   2 mph 96% 0 in 0 W/m2
03:26 41.5 °F 40.8 °F 30.3 in Calm     97% 0 in 0 W/m2
03:31 41.5 °F 40.8 °F 30.3 in Calm     97% 0 in 0 W/m2
03:36 41.4 °F 40.6 °F 30.3 in NE 0.9 mph 2 mph 97% 0 in 0 W/m2
03:41 41.4 °F 40.6 °F 30.3 in Calm     97% 0 in 0 W/m2
03:46 41.4 °F 40.6 °F 30.3 in Calm   1 mph 97% 0 in 0 W/m2
03:51 41.4 °F 40.6 °F 30.3 in Calm   1 mph 97% 0 in 0 W/m2
03:56 41.2 °F 40.5 °F 30.3 in Calm     97% 0 in 0 W/m2
04:01 41.2 °F 40.5 °F 30.3 in NE 0.9 mph 1 mph 97% 0 in 0 W/m2
04:06 41.2 °F 40.5 °F 30.3 in Calm   1 mph 97% 0 in 0 W/m2
04:11 41.2 °F 40.5 °F 30.3 in Calm   1 mph 97% 0 in 0 W/m2
04:16 41.2 °F 40.5 °F 30.3 in NE 0.9 mph 2 mph 97% 0 in 0 W/m2
04:21 41 °F 40.3 °F 30.3 in Calm   1 mph 97% 0 in 0 W/m2
04:26 41 °F 40.3 °F 30.3 in NE 0.9 mph 3 mph 97% 0 in 0 W/m2
04:31 40.8 °F 40.1 °F 30.3 in NE 2 mph 2 mph 97% 0 in 0 W/m2
04:36 40.6 °F 39.9 °F 30.3 in NE 0.9 mph 3 mph 97% 0 in 0 W/m2
04:41 40.5 °F 39.7 °F 30.3 in Calm   1 mph 97% 0 in 0 W/m2
04:46 40.5 °F 39.7 °F 30.3 in Calm     97% 0 in 0 W/m2
04:51 40.5 °F 39.7 °F 30.3 in Calm     97% 0 in 0 W/m2
04:56 40.5 °F 39.7 °F 30.3 in Calm     97% 0 in 0 W/m2
05:01 40.5 °F 39.7 °F 30.3 in NE 0.9 mph 2 mph 97% 0 in 0 W/m2
05:06 40.3 °F 39.6 °F 30.3 in Calm   1 mph 97% 0 in 0 W/m2
05:11 40.3 °F 39.6 °F 30.3 in Calm     97% 0 in 0 W/m2
05:16 40.3 °F 39.6 °F 30.3 in Calm     97% 0 in 0 W/m2
05:21 40.3 °F 39.6 °F 30.3 in NE 0.9 mph 1 mph 97% 0 in 0 W/m2
05:26 40.1 °F 39.4 °F 30.3 in Calm   1 mph 97% 0 in 0 W/m2
05:31 40.1 °F 39.4 °F 30.3 in Calm     97% 0 in 0 W/m2
05:36 39.9 °F 39.2 °F 30.3 in Calm     97% 0 in 0 W/m2
05:41 39.9 °F 39.2 °F 30.3 in Calm     97% 0 in 0 W/m2
05:46 39.9 °F 39.2 °F 30.3 in Calm     97% 0 in 0 W/m2
05:51 39.9 °F 39.2 °F 30.3 in Calm     97% 0 in 0 W/m2
05:56 39.9 °F 39.2 °F 30.3 in NE 0.9 mph 1 mph 97% 0 in 0 W/m2
06:01 39.9 °F 39.2 °F 30.3 in NE 0.9 mph 1 mph 97% 0 in 0 W/m2
06:06 39.7 °F 39 °F 30.3 in Calm     97% 0 in 0 W/m2
06:11 39.7 °F 39 °F 30.3 in Calm     97% 0 in 0 W/m2
06:16 39.9 °F 39.2 °F 30.3 in Calm   1 mph 97% 0 in 0 W/m2
06:21 39.7 °F 39 °F 30.3 in NE 0.9 mph 1 mph 97% 0 in 0 W/m2
06:26 39.7 °F 39 °F 30.3 in Calm     97% 0 in 0 W/m2
06:31 39.7 °F 39 °F 30.3 in Calm     97% 0 in 0 W/m2
06:36 39.7 °F 39 °F 30.3 in Calm   2 mph 97% 0 in 0 W/m2
06:41 39.7 °F 39 °F 30.3 in Calm     97% 0 in 0 W/m2
06:46 39.7 °F 39 °F 30.3 in Calm   1 mph 97% 0 in 0 W/m2
06:51 39.7 °F 39 °F 30.3 in Calm   1 mph 97% 0 in 0 W/m2
06:56 39.7 °F 39 °F 30.3 in NE 2 mph 3 mph 97% 0 in 0 W/m2
07:01 39.7 °F 39 °F 30.3 in Calm   2 mph 97% 0 in 0 W/m2
07:06 39.7 °F 39 °F 30.3 in Calm   3 mph 97% 0 in 0 W/m2
07:11 39.7 °F 39 °F 30.3 in NE 0.9 mph 1 mph 97% 0 in 0 W/m2
07:16 39.9 °F 39.2 °F 30.3 in NE 2.9 mph 4 mph 97% 0 in 0 W/m2
07:21 39.9 °F 39.2 °F 30.3 in NE 0.9 mph 3 mph 97% 0 in 0 W/m2
07:26 39.9 °F 39.2 °F 30.3 in NE 0.9 mph 4 mph 97% 0 in 0 W/m2
07:31 39.9 °F 39.2 °F 30.3 in Calm   1 mph 97% 0 in 0 W/m2
07:36 39.9 °F 39.2 °F 30.3 in Calm   2 mph 97% 0 in 0 W/m2
07:41 39.9 °F 39.2 °F 30.3 in Calm   1 mph 97% 0 in 0 W/m2
07:46 39.9 °F 39.2 °F 30.3 in Calm   2 mph 97% 0 in 0 W/m2
07:51 39.9 °F 39.2 °F 30.3 in Calm   2 mph 97% 0 in 0 W/m2
07:56 39.9 °F 39.2 °F 30.3 in NE 2 mph 3 mph 97% 0 in 0 W/m2
08:01 39.9 °F 39.2 °F 30.3 in ENE 2 mph 2 mph 97% 0 in 0 W/m2
08:06 39.9 °F 39.2 °F 30.3 in ENE 0.9 mph 1 mph 97% 0 in 0 W/m2
08:11 39.9 °F 39.2 °F 30.3 in Calm     97% 0 in 0 W/m2
08:16 39.9 °F 39.2 °F 30.3 in Calm     97% 0 in 0 W/m2
08:21 39.9 °F 39.2 °F 30.3 in ENE 2 mph 4 mph 97% 0 in 5 W/m2
08:26 39.7 °F 39 °F 30.3 in Calm     97% 0 in 5 W/m2
08:31 39.7 °F 39 °F 30.3 in Calm   2 mph 97% 0 in 5 W/m2
08:36 39.7 °F 39 °F 30.3 in Calm   2 mph 97% 0.01 in 7 W/m2
08:41 39.7 °F 39 °F 30.3 in ESE 2 mph 3 mph 97% 0.01 in 7 W/m2
08:46 39.7 °F 39 °F 30.3 in Calm   1 mph 97% 0.01 in 9 W/m2
08:51 39.7 °F 39 °F 30.3 in Calm     97% 0.01 in 11 W/m2
08:56 39.7 °F 39 °F 30.3 in ENE 0.9 mph 5 mph 97% 0.01 in 11 W/m2
09:01 39.6 °F 38.8 °F 30.3 in Calm     97% 0.01 in 12 W/m2
09:06 39.6 °F 38.8 °F 30.3 in Calm   5 mph 97% 0.01 in 14 W/m2
09:11 39.6 °F 38.8 °F 30.3 in Calm   3 mph 97% 0.01 in 14 W/m2
09:16 39.6 °F 38.8 °F 30.3 in NE 0.9 mph 1 mph 97% 0.01 in 18 W/m2
09:21 39.6 °F 38.8 °F 30.3 in East 2 mph 2 mph 97% 0.01 in 21 W/m2
09:26 39.6 °F 38.8 °F 30.3 in ESE 4 mph 4 mph 97% 0.01 in 23 W/m2
09:31 39.6 °F 38.8 °F 30.3 in SSE 2.9 mph 4 mph 97% 0.01 in 23 W/m2
09:36 39.6 °F 38.8 °F 30.3 in ESE 0.9 mph 3 mph 97% 0 in 26 W/m2
09:41 39.4 °F 38.7 °F 30.3 in ENE 2 mph 2 mph 97% 0 in 28 W/m2
09:46 39.4 °F 38.7 °F 30.3 in ENE 2 mph 4 mph 97% 0 in 28 W/m2
09:51 39 °F 38.3 °F 30.3 in ESE 2.9 mph 3 mph 97% 0 in 28 W/m2
09:56 38.8 °F 38.1 °F 30.3 in ESE 0.9 mph 2 mph 97% 0 in 28 W/m2
10:01 38.8 °F 38.1 °F 30.3 in East 2.9 mph 4 mph 97% 0 in 32 W/m2
10:06 38.8 °F 38.1 °F 30.3 in East 0.9 mph 3 mph 97% 0 in 30 W/m2
10:11 38.7 °F 37.9 °F 30.3 in ESE 2 mph 2 mph 97% 0 in 33 W/m2
10:16 38.7 °F 37.9 °F 30.3 in East 0.9 mph 2 mph 97% 0 in 39 W/m2
10:21 38.5 °F 37.8 °F 30.3 in SE 0.9 mph 3 mph 97% 0 in 40 W/m2
10:26 38.5 °F 37.8 °F 30.3 in East 2 mph 2 mph 97% 0 in 39 W/m2
10:31 38.5 °F 37.8 °F 30.3 in SE 2 mph 2 mph 97% 0 in 42 W/m2
10:36 38.5 °F 37.8 °F 30.3 in Calm   2 mph 97% 0 in 46 W/m2
10:41 38.5 °F 37.8 °F 30.3 in SE 0.9 mph 6 mph 97% 0 in 46 W/m2
10:46 38.1 °F 37.4 °F 30.3 in ESE 2 mph 3 mph 97% 0 in 46 W/m2
10:51 38.1 °F 37.4 °F 30.3 in East 0.9 mph 6 mph 97% 0 in 47 W/m2
10:57 37.9 °F 37.2 °F 30.3 in Calm   3 mph 97% 0 in 47 W/m2
11:02 37.9 °F 37.2 °F 30.3 in Calm   1 mph 97% 0 in 46 W/m2
11:07 37.9 °F 37.2 °F 30.3 in East 0.9 mph 1 mph 97% 0 in 49 W/m2
11:12 38.1 °F 37.4 °F 30.3 in East 0.9 mph 2 mph 97% 0 in 47 W/m2
11:17 38.1 °F 37.4 °F 30.3 in ENE 0.9 mph 2 mph 97% 0 in 44 W/m2
11:22 38.1 °F 37.4 °F 30.3 in East 0.9 mph 3 mph 97% 0 in 44 W/m2
11:27 38.1 °F 37.4 °F 30.3 in ENE 0.9 mph 2 mph 97% 0 in 47 W/m2
11:32 37.9 °F 37.2 °F 30.3 in ESE 4 mph 7 mph 97% 0 in 46 W/m2
11:37 37.8 °F 37 °F 30.3 in Calm   2 mph 97% 0 in 49 W/m2
11:42 37.8 °F 37 °F 30.3 in ENE 2.9 mph 7 mph 97% 0 in 47 W/m2
11:47 37.6 °F 36.9 °F 30.3 in ESE 0.9 mph 3 mph 97% 0 in 49 W/m2
11:52 37.6 °F 36.9 °F 30.3 in East 2 mph 3 mph 97% 0 in 51 W/m2
11:57 37.6 °F 36.9 °F 30.3 in ESE 0.9 mph 2 mph 97% 0 in 49 W/m2
12:02 37.6 °F 36.9 °F 30.3 in NE 2 mph 3 mph 97% 0 in 51 W/m2
12:07 37.2 °F 36.5 °F 30.3 in ENE 0.9 mph 3 mph 97% 0 in 53 W/m2
12:12 37.2 °F 36.5 °F 30.3 in Calm   2 mph 97% 0 in 51 W/m2
12:17 37.2 °F 36.5 °F 30.3 in ENE 0.9 mph 2 mph 97% 0 in 49 W/m2
12:22 37.4 °F 36.7 °F 30.2 in ENE 0.9 mph 4 mph 97% 0 in 53 W/m2
12:27 37.6 °F 36.9 °F 30.2 in ESE 2 mph 3 mph 97% 0 in 58 W/m2
12:32 37.8 °F 37 °F 30.2 in Calm   3 mph 97% 0 in 62 W/m2
12:37 37.9 °F 37.2 °F 30.2 in SE 2 mph 3 mph 97% 0 in 65 W/m2
12:42 38.1 °F 37.4 °F 30.2 in NE 2 mph 3 mph 97% 0 in 49 W/m2
12:47 38.1 °F 37.4 °F 30.2 in East 2 mph 4 mph 97% 0 in 56 W/m2
12:52 38.1 °F 37.4 °F 30.2 in ESE 2 mph 3 mph 97% 0 in 60 W/m2
12:57 38.3 °F 37.6 °F 30.2 in East 2 mph 4 mph 97% 0 in 53 W/m2
13:02 38.5 °F 37.8 °F 30.2 in East 0.9 mph 3 mph 97% 0 in 49 W/m2
13:07 38.5 °F 37.8 °F 30.2 in ENE 2.9 mph 3 mph 97% 0 in 49 W/m2
13:12 38.7 °F 37.9 °F 30.2 in Calm   3 mph 97% 0 in 46 W/m2
13:17 38.7 °F 37.9 °F 30.2 in Calm   2 mph 97% 0 in 46 W/m2
13:22 38.8 °F 38.1 °F 30.2 in East 0.9 mph 2 mph 97% 0 in 44 W/m2
13:27 38.8 °F 38.1 °F 30.2 in ENE 2 mph 3 mph 97% 0 in 47 W/m2
13:32 38.8 °F 38.1 °F 30.2 in ESE 0.9 mph 3 mph 97% 0 in 40 W/m2
13:37 39 °F 38.3 °F 30.2 in ESE 0.9 mph 3 mph 97% 0 in 39 W/m2
13:42 39 °F 38.3 °F 30.2 in Calm   3 mph 97% 0 in 35 W/m2
13:47 39.2 °F 38.7 °F 30.2 in East 0.9 mph 3 mph 98% 0 in 35 W/m2
13:52 39.4 °F 38.8 °F 30.2 in ENE 4 mph 4 mph 98% 0 in 37 W/m2
13:57 39.4 °F 38.8 °F 30.2 in East 2 mph 5 mph 98% 0 in 37 W/m2
14:02 39.2 °F 38.7 °F 30.2 in South 0.9 mph 3 mph 98% 0 in 35 W/m2
14:07 39.2 °F 38.7 °F 30.2 in East 2.9 mph 4 mph 98% 0 in 35 W/m2
14:12 39.2 °F 38.7 °F 30.2 in East 2 mph 3 mph 98% 0 in 33 W/m2
14:17 39.2 °F 38.7 °F 30.2 in ESE 0.9 mph 3 mph 98% 0 in 35 W/m2
14:22 39.4 °F 38.8 °F 30.2 in Calm   2 mph 98% 0 in 30 W/m2
14:27 39.4 °F 38.7 °F 30.2 in Calm   2 mph 97% 0 in 28 W/m2
14:32 39.2 °F 38.7 °F 30.2 in Calm   3 mph 98% 0 in 26 W/m2
14:37 39.2 °F 38.5 °F 30.2 in SE 2.9 mph 4 mph 97% 0 in 26 W/m2
14:42 39.2 °F 38.5 °F 30.2 in Calm   1 mph 97% 0 in 28 W/m2
14:47 39.2 °F 38.5 °F 30.2 in East 0.9 mph 2 mph 97% 0 in 26 W/m2
14:52 39 °F 38.3 °F 30.2 in ESE 0.9 mph 3 mph 97% 0 in 28 W/m2
14:57 39 °F 38.3 °F 30.2 in Calm   4 mph 97% 0 in 25 W/m2
15:02 39 °F 38.3 °F 30.2 in ESE 2 mph 4 mph 97% 0 in 21 W/m2
15:07 39 °F 38.3 °F 30.2 in East 2 mph 2 mph 97% 0 in 21 W/m2
15:12 39 °F 38.3 °F 30.2 in East 2 mph 2 mph 97% 0 in 18 W/m2
15:17 39 °F 38.3 °F 30.2 in Calm   2 mph 97% 0 in 12 W/m2
15:22 38.8 °F 38.1 °F 30.2 in East 0.9 mph 2 mph 97% 0 in 11 W/m2
15:27 38.8 °F 38.1 °F 30.2 in ESE 2 mph 3 mph 97% 0 in 9 W/m2
15:32 38.8 °F 38.1 °F 30.2 in ESE 4 mph 4 mph 97% 0 in 7 W/m2
15:37 38.8 °F 38.1 °F 30.2 in ESE 2 mph 3 mph 97% 0 in 9 W/m2
15:42 38.8 °F 38.1 °F 30.2 in NE 2 mph 2 mph 97% 0 in 7 W/m2
15:47 38.8 °F 38.1 °F 30.2 in East 2.9 mph 3 mph 97% 0 in 7 W/m2
15:52 38.8 °F 38.1 °F 30.2 in East 2.9 mph 6 mph 97% 0 in 7 W/m2
15:58 38.7 °F 37.9 °F 30.2 in ESE 2.9 mph 5 mph 97% 0 in 7 W/m2
16:03 38.7 °F 37.9 °F 30.2 in Calm   6 mph 97% 0 in 5 W/m2
16:08 38.7 °F 37.9 °F 30.2 in ESE 0.9 mph 2 mph 97% 0 in 5 W/m2
16:13 38.7 °F 37.9 °F 30.2 in ENE 0.9 mph 3 mph 97% 0 in 5 W/m2
16:18 38.8 °F 38.1 °F 30.2 in East 2 mph 3 mph 97% 0 in 0 W/m2
16:23 38.8 °F 38.1 °F 30.2 in ESE 0.9 mph 2 mph 97% 0 in 0 W/m2
16:28 38.8 °F 38.1 °F 30.2 in East 0.9 mph 2 mph 97% 0 in 0 W/m2
16:33 38.8 °F 38.1 °F 30.2 in SE 2 mph 3 mph 97% 0 in 0 W/m2
16:38 39 °F 38.3 °F 30.2 in SE 0.9 mph 3 mph 97% 0 in 0 W/m2
16:43 39 °F 38.3 °F 30.2 in ENE 0.9 mph 3 mph 97% 0 in 0 W/m2
16:48 39 °F 38.3 °F 30.2 in ENE 2 mph 3 mph 97% 0 in 0 W/m2
16:53 39 °F 38.3 °F 30.2 in ENE 2.9 mph 3 mph 97% 0 in 0 W/m2
16:58 39 °F 38.3 °F 30.2 in SE 2 mph 4 mph 97% 0 in 0 W/m2
17:03 39 °F 38.3 °F 30.2 in ENE 4 mph 4 mph 97% 0 in 0 W/m2
17:08 39 °F 38.3 °F 30.2 in Calm   2 mph 97% 0 in 0 W/m2
17:13 39 °F 38.3 °F 30.2 in ESE 0.9 mph 3 mph 97% 0 in 0 W/m2
17:18 39 °F 38.3 °F 30.2 in SE 2 mph 3 mph 97% 0 in 0 W/m2
17:23 39 °F 38.3 °F 30.2 in ESE 0.9 mph 7 mph 97% 0 in 0 W/m2
17:28 39 °F 38.3 °F 30.2 in ESE 2 mph 2 mph 97% 0 in 0 W/m2
17:33 39 °F 38.3 °F 30.2 in ESE 0.9 mph 7 mph 97% 0 in 0 W/m2
17:38 38.8 °F 38.1 °F 30.2 in NE 2.9 mph 7 mph 97% 0 in 0 W/m2
17:43 38.8 °F 38.1 °F 30.2 in ESE 2.9 mph 3 mph 97% 0 in 0 W/m2
17:48 38.8 °F 38.1 °F 30.2 in East 2 mph 3 mph 97% 0 in 0 W/m2
17:53 38.8 °F 38.1 °F 30.2 in ESE 0.9 mph 3 mph 97% 0 in 0 W/m2
17:58 39 °F 38.3 °F 30.2 in ESE 0.9 mph 4 mph 97% 0 in 0 W/m2
18:03 39 °F 38.3 °F 30.2 in ENE 0.9 mph 3 mph 97% 0 in 0 W/m2
18:08 39 °F 38.3 °F 30.2 in ENE 0.9 mph 1 mph 97% 0 in 0 W/m2
18:13 39 °F 38.3 °F 30.2 in East 2 mph 3 mph 97% 0 in 0 W/m2
18:18 39 °F 38.3 °F 30.2 in Calm   2 mph 97% 0 in 0 W/m2
18:23 39.2 °F 38.5 °F 30.2 in East 0.9 mph 3 mph 97% 0 in 0 W/m2
18:28 39.4 °F 38.7 °F 30.2 in ENE 2 mph 3 mph 97% 0 in 0 W/m2
18:33 39.4 °F 38.7 °F 30.2 in ESE 2 mph 2 mph 97% 0 in 0 W/m2
18:38 39.4 °F 38.7 °F 30.2 in East 0.9 mph 2 mph 97% 0 in 0 W/m2
18:43 39.4 °F 38.7 °F 30.2 in ESE 2 mph 3 mph 97% 0 in 0 W/m2
18:48 39.6 °F 38.8 °F 30.2 in ESE 2 mph 2 mph 97% 0 in 0 W/m2
18:53 39.6 °F 38.8 °F 30.2 in Calm   2 mph 97% 0 in 0 W/m2
18:58 39.6 °F 38.8 °F 30.2 in ESE 0.9 mph 4 mph 97% 0 in 0 W/m2
19:03 39.6 °F 38.8 °F 30.2 in NE 0.9 mph 2 mph 97% 0 in 0 W/m2
19:08 39.7 °F 39 °F 30.2 in ESE 0.9 mph 3 mph 97% 0 in 0 W/m2
19:13 39.7 °F 39 °F 30.2 in East 2 mph 2 mph 97% 0 in 0 W/m2
19:18 39.7 °F 39 °F 30.2 in East 0.9 mph 5 mph 97% 0 in 0 W/m2
19:23 39.7 °F 39 °F 30.2 in ESE 0.9 mph 3 mph 97% 0 in 0 W/m2
19:28 39.7 °F 39 °F 30.2 in ESE 0.9 mph 3 mph 97% 0 in 0 W/m2
19:33 39.9 °F 39.2 °F 30.2 in East 2 mph 2 mph 97% 0 in 0 W/m2
19:38 39.9 °F 39.2 °F 30.2 in East 2.9 mph 4 mph 97% 0 in 0 W/m2
19:43 39.9 °F 39.2 °F 30.2 in ESE 2 mph 2 mph 97% 0 in 0 W/m2
19:48 39.9 °F 39.2 °F 30.2 in ESE 0.9 mph 4 mph 97% 0 in 0 W/m2
19:53 40.1 °F 39.4 °F 30.2 in ENE 0.9 mph 2 mph 97% 0 in 0 W/m2
19:59 40.1 °F 39.4 °F 30.2 in East 2 mph 4 mph 97% 0 in 0 W/m2
20:04 40.1 °F 39.4 °F 30.2 in East 2 mph 6 mph 97% 0 in 0 W/m2
20:09 40.1 °F 39.4 °F 30.2 in NNE 2.9 mph 3 mph 97% 0 in 0 W/m2
20:14 40.3 °F 39.6 °F 30.2 in ESE 0.9 mph 6 mph 97% 0 in 0 W/m2
20:19 40.3 °F 39.6 °F 30.2 in ESE 2 mph 4 mph 97% 0 in 0 W/m2
20:24 40.3 °F 39.6 °F 30.2 in ESE 0.9 mph 4 mph 97% 0 in 0 W/m2
20:29 40.3 °F 39.6 °F 30.2 in East 0.9 mph 2 mph 97% 0 in 0 W/m2
20:34 40.3 °F 39.6 °F 30.2 in ESE 2 mph 2 mph 97% 0 in 0 W/m2
20:39 40.3 °F 39.6 °F 30.2 in ESE 0.9 mph 1 mph 97% 0 in 0 W/m2
20:44 40.3 °F 39.6 °F 30.2 in East 0.9 mph 2 mph 97% 0 in 0 W/m2
20:49 40.3 °F 39.6 °F 30.2 in ESE 2 mph 2 mph 97% 0 in 0 W/m2
20:54 40.1 °F 39.4 °F 30.2 in ESE 0.9 mph 6 mph 97% 0 in 0 W/m2
20:59 40.3 °F 39.6 °F 30.2 in Calm   2 mph 97% 0 in 0 W/m2
21:04 40.3 °F 39.6 °F 30.2 in ESE 2 mph 6 mph 97% 0 in 0 W/m2
21:09 40.1 °F 39.4 °F 30.2 in ESE 0.9 mph 2 mph 97% 0 in 0 W/m2
21:14 40.1 °F 39.4 °F 30.1 in East 0.9 mph 3 mph 97% 0 in 0 W/m2
21:19 40.1 °F 39.4 °F 30.1 in East 2 mph 4 mph 97% 0 in 0 W/m2
21:24 40.1 °F 39.4 °F 30.1 in ESE 2 mph 3 mph 97% 0 in 0 W/m2
21:29 40.1 °F 39 °F 30.1 in ESE 0.9 mph 2 mph 96% 0 in 0 W/m2
21:34 40.3 °F 39.2 °F 30.1 in East 2.9 mph 3 mph 96% 0 in 0 W/m2
21:39 40.1 °F 39 °F 30.1 in East 2 mph 3 mph 96% 0 in 0 W/m2
21:44 40.1 °F 39 °F 30.1 in East 2 mph 3 mph 96% 0 in 0 W/m2
21:49 40.3 °F 39.2 °F 30.1 in ESE 0.9 mph 2 mph 96% 0 in 0 W/m2
21:54 40.3 °F 39.2 °F 30.1 in ESE 2.9 mph 4 mph 96% 0 in 0 W/m2
21:59 40.3 °F 39.2 °F 30.1 in ESE 2 mph 4 mph 96% 0 in 0 W/m2
22:04 40.3 °F 39.2 °F 30.1 in ESE 0.9 mph 5 mph 96% 0 in 0 W/m2
22:09 40.1 °F 39 °F 30.1 in East 4 mph 6 mph 96% 0 in 0 W/m2
22:14 39.9 °F 38.8 °F 30.1 in ESE 2.9 mph 4 mph 96% 0 in 0 W/m2
22:19 39.9 °F 38.8 °F 30.1 in Calm   2 mph 96% 0 in 0 W/m2
22:24 39.9 °F 38.8 °F 30.1 in SE 2 mph 3 mph 96% 0 in 0 W/m2
22:29 39.9 °F 38.8 °F 30.1 in Calm   3 mph 96% 0 in 0 W/m2
22:34 39.9 °F 38.8 °F 30.1 in East 0.9 mph 3 mph 96% 0 in 0 W/m2
22:39 39.9 °F 38.8 °F 30.1 in East 2 mph 6 mph 96% 0 in 0 W/m2
22:44 39.9 °F 38.8 °F 30.1 in ESE 2.9 mph 4 mph 96% 0 in 0 W/m2
22:49 39.7 °F 38.7 °F 30.1 in SE 0.9 mph 3 mph 96% 0 in 0 W/m2
22:54 39.9 °F 38.8 °F 30.1 in ESE 0.9 mph 4 mph 96% 0 in 0 W/m2
22:59 39.7 °F 38.5 °F 30.1 in East 0.9 mph 4 mph 95% 0 in 0 W/m2
23:04 39.7 °F 38.5 °F 30.1 in ESE 0.9 mph 4 mph 95% 0 in 0 W/m2
23:09 39.7 °F 38.5 °F 30.1 in Calm   3 mph 95% 0 in 0 W/m2
23:14 39.6 °F 38.3 °F 30.1 in East 2 mph 3 mph 95% 0 in 0 W/m2
23:19 39.6 °F 38.3 °F 30.1 in ENE 2 mph 5 mph 95% 0 in 0 W/m2
23:24 39.6 °F 38.3 °F 30.1 in East 2.9 mph 3 mph 95% 0 in 0 W/m2
23:29 39.4 °F 38.1 °F 30.1 in Calm   1 mph 95% 0 in 0 W/m2
23:34 39.4 °F 38.1 °F 30.1 in ESE 0.9 mph 2 mph 95% 0 in 0 W/m2
23:39 39.4 °F 38.1 °F 30.1 in East 0.9 mph 3 mph 95% 0 in 0 W/m2
23:44 39.4 °F 38.1 °F 30.1 in ESE 0.9 mph 3 mph 95% 0 in 0 W/m2
23:49 39.4 °F 38.3 °F 30.1 in Calm   2 mph 96% 0 in 0 W/m2
23:54 39.2 °F 37.9 °F 30.1 in East 0.9 mph 4 mph 95% 0 in 0 W/m2
23:59 39.2 °F 37.9 °F 30.1 in East 0.9 mph 2 mph 95% 0 in 0 W/m2
Juneau County Weather
Compliments of Weather Underground - 4 mb